Time;durP1;ratioP1;P1;durP2;ratioP2;P2;SDS_P1;SDS_P2;PMS_P1;PMS_P2;Temp;Humidity;BMP_temperature;BMP_pressure;BME280_temperature;BME280_humidity;BME280_pressure;Samples;Min_cycle;Max_cycle;Signal;HPM_P1;HPM_P2
2022/10/07 00:01:34;;;;;;;4.18;3.42;;;11.30;99.90;;;;;;6227730;23;20000;-65
2022/10/07 00:04:00;;;;;;;3.50;3.20;;;11.30;99.90;;;;;;6229780;23;20687;-66
2022/10/07 00:06:25;;;;;;;3.67;3.38;;;11.30;99.90;;;;;;6228171;23;20016;-66
2022/10/07 00:08:52;;;;;;;5.32;3.67;;;11.30;99.90;;;;;;6225804;23;20617;-66
2022/10/07 00:11:24;;;;;;;29.60;4.90;;;11.30;99.90;;;;;;6229239;22;20008;-66
2022/10/07 00:13:53;;;;;;;9.82;2.67;;;11.30;99.90;;;;;;6228570;23;20014;-66
2022/10/07 00:16:23;;;;;;;3.00;2.38;;;11.30;99.90;;;;;;6229049;23;20012;-66
2022/10/07 00:18:50;;;;;;;16.35;3.22;;;11.20;99.90;;;;;;6231045;23;20437;-66
2022/10/07 00:21:18;;;;;;;4.25;2.80;;;11.10;99.90;;;;;;6232191;22;20076;-66
2022/10/07 00:23:45;;;;;;;3.78;2.40;;;11.10;99.90;;;;;;6231471;23;20008;-66
2022/10/07 00:26:13;;;;;;;4.38;3.00;;;11.00;99.90;;;;;;6232948;23;20038;-65
2022/10/07 00:28:38;;;;;;;6.38;2.80;;;11.00;99.90;;;;;;6230917;23;20519;-66
2022/10/07 00:31:07;;;;;;;4.85;2.60;;;11.00;99.90;;;;;;6233631;23;20004;-66
2022/10/07 00:33:35;;;;;;;5.03;2.80;;;11.00;99.90;;;;;;6233088;23;20758;-66
2022/10/07 00:36:06;;;;;;;4.28;2.90;;;11.00;99.90;;;;;;6231720;23;20085;-69
2022/10/07 00:38:31;;;;;;;4.03;3.00;;;11.00;99.90;;;;;;6234466;23;20008;-68
2022/10/07 00:40:57;;;;;;;10.75;3.50;;;11.00;99.90;;;;;;6232051;23;20087;-69
2022/10/07 00:43:28;;;;;;;10.98;4.07;;;11.10;99.90;;;;;;6234499;23;20028;-69
2022/10/07 00:46:19;;;;;;;7.18;3.08;;;11.10;99.90;;;;;;6232760;23;20012;-69
2022/10/07 00:48:45;;;;;;;5.97;4.38;;;11.10;99.90;;;;;;6232436;22;20015;-69
2022/10/07 00:51:15;;;;;;;5.32;4.75;;;11.10;99.90;;;;;;6234088;22;20476;-69
2022/10/07 00:53:42;;;;;;;8.00;5.22;;;11.10;99.90;;;;;;6232081;23;20004;-69
2022/10/07 00:56:09;;;;;;;9.95;5.82;;;11.10;99.90;;;;;;6232174;23;20809;-69
2022/10/07 00:58:36;;;;;;;9.48;6.03;;;11.10;99.90;;;;;;6227866;23;20004;-68
2022/10/07 01:01:02;;;;;;;9.70;6.43;;;11.00;99.90;;;;;;6230200;23;20449;-69
2022/10/07 01:03:28;;;;;;;6.57;5.22;;;11.00;99.90;;;;;;6232302;23;20015;-68
2022/10/07 01:05:54;;;;;;;7.65;4.97;;;11.10;99.90;;;;;;6233161;23;20426;-69
2022/10/07 01:08:22;;;;;;;8.55;4.32;;;11.10;99.90;;;;;;6233234;23;20000;-69
2022/10/07 01:10:58;;;;;;;4.20;3.63;;;11.10;99.90;;;;;;6227070;22;20012;-69
2022/10/07 01:13:41;;;;;;;3.63;3.25;;;11.00;99.90;;;;;;6230822;23;20004;-69
2022/10/07 01:16:22;;;;;;;4.63;3.13;;;10.90;99.90;;;;;;6231721;23;20301;-69
2022/10/07 01:19:21;;;;;;;4.60;2.95;;;10.90;99.90;;;;;;6233449;23;20187;-69
2022/10/07 01:22:00;;;;;;;3.88;3.47;;;10.90;99.90;;;;;;6195406;22;20430;-68
2022/10/07 01:24:46;;;;;;;6.60;2.97;;;10.90;99.90;;;;;;6232514;23;20011;-69
2022/10/07 01:27:15;;;;;;;5.55;2.83;;;10.90;99.90;;;;;;6235078;23;20040;-70
2022/10/07 01:29:54;;;;;;;6.60;3.80;;;10.90;99.90;;;;;;6233440;23;20436;-69
2022/10/07 01:32:35;;;;;;;5.90;3.42;;;10.90;99.90;;;;;;6235163;23;20008;-69
2022/10/07 01:35:04;;;;;;;4.43;3.50;;;10.80;99.90;;;;;;6235196;23;20004;-69
2022/10/07 01:37:36;;;;;;;4.03;3.38;;;10.80;99.90;;;;;;6232289;23;20012;-69
2022/10/07 01:40:08;;;;;;;4.30;3.20;;;10.80;99.90;;;;;;6234387;23;20102;-69
2022/10/07 01:42:33;;;;;;;;;;;10.80;99.90;;;;;;6233194;23;20748;-70
2022/10/07 01:44:59;;;;;;;3.50;3.20;;;10.80;99.90;;;;;;6230879;22;19939;-69
2022/10/07 01:47:26;;;;;;;6.05;4.18;;;10.70;99.90;;;;;;6231997;23;20035;-69
2022/10/07 01:49:51;;;;;;;6.00;4.68;;;10.80;99.90;;;;;;6233252;23;20022;-69
2022/10/07 01:52:59;;;;;;;8.35;4.45;;;10.80;99.90;;;;;;6234096;23;20012;-67
2022/10/07 01:55:31;;;;;;;6.07;4.28;;;10.70;99.90;;;;;;6231887;22;20010;-66
2022/10/07 01:58:19;;;;;;;5.72;4.78;;;10.70;99.90;;;;;;6232597;23;20015;-66
2022/10/07 02:01:01;;;;;;;4.20;3.80;;;10.70;99.90;;;;;;6228252;23;20139;-66
2022/10/07 02:03:41;;;;;;;6.00;4.47;;;10.70;99.90;;;;;;6233754;23;20311;-66
2022/10/07 02:06:27;;;;;;;6.93;4.15;;;10.70;99.90;;;;;;6228604;23;20073;-66
2022/10/07 02:08:54;;;;;;;7.28;4.95;;;10.60;99.90;;;;;;6234470;23;19996;-66
2022/10/07 02:11:24;;;;;;;6.65;4.63;;;10.50;99.90;;;;;;6232106;22;20015;-69
2022/10/07 02:14:07;;;;;;;6.10;4.25;;;10.50;99.90;;;;;;6232544;23;20364;-70
2022/10/07 02:17:14;;;;;;;4.63;3.85;;;10.30;99.90;;;;;;6226698;23;20019;-69
2022/10/07 02:19:44;;;;;;;5.43;4.25;;;10.30;99.90;;;;;;6232519;22;20061;-69
2022/10/07 02:22:14;;;;;;;5.97;4.93;;;10.30;99.90;;;;;;6232944;23;20003;-70
2022/10/07 02:24:41;;;;;;;7.38;4.43;;;10.30;99.90;;;;;;6231169;23;20004;-69
2022/10/07 02:27:14;;;;;;;9.23;5.20;;;10.30;99.90;;;;;;6232023;23;20016;-69
2022/10/07 02:29:41;;;;;;;7.32;5.45;;;10.40;99.90;;;;;;6228520;23;20012;-70
2022/10/07 02:32:14;;;;;;;7.38;5.35;;;10.40;99.90;;;;;;6229071;23;20011;-69
2022/10/07 02:34:42;;;;;;;7.65;3.97;;;10.40;99.90;;;;;;6232096;23;20015;-69
2022/10/07 02:37:18;;;;;;;8.13;3.90;;;10.40;99.90;;;;;;6229019;23;20028;-69
2022/10/07 02:39:45;;;;;;;5.85;3.85;;;10.30;99.90;;;;;;6230039;23;20012;-69
2022/10/07 02:42:29;;;;;;;7.25;4.55;;;10.30;99.90;;;;;;6227731;23;20015;-69
2022/10/07 02:45:03;;;;;;;4.30;3.90;;;10.30;99.90;;;;;;6231080;23;20151;-69
2022/10/07 02:47:49;;;;;;;6.15;3.95;;;10.30;99.90;;;;;;6230761;23;20043;-69
2022/10/07 02:50:21;;;;;;;4.72;3.33;;;10.30;99.90;;;;;;6231460;23;20087;-69
2022/10/07 02:52:49;;;;;;;4.45;3.83;;;10.20;99.90;;;;;;6232431;23;20003;-69
2022/10/07 02:55:20;;;;;;;8.80;3.53;;;10.20;99.90;;;;;;6227526;23;20011;-69
2022/10/07 02:57:51;;;;;;;3.33;2.97;;;10.20;99.90;;;;;;6234450;23;20012;-69
2022/10/07 03:00:17;;;;;;;6.55;3.60;;;10.20;99.90;;;;;;6230884;22;20592;-69
2022/10/07 03:02:53;;;;;;;4.82;4.43;;;10.20;99.90;;;;;;6232690;23;20075;-69
2022/10/07 03:05:20;;;;;;;4.10;3.67;;;10.10;99.90;;;;;;6231859;23;20012;-69
2022/10/07 03:07:48;;;;;;;4.43;4.00;;;10.00;99.90;;;;;;6232362;23;20337;-68
2022/10/07 03:10:15;;;;;;;4.07;3.72;;;10.00;99.90;;;;;;6227882;22;19992;-66
2022/10/07 03:12:41;;;;;;;3.47;3.10;;;10.00;99.90;;;;;;6232487;23;20008;-66
2022/10/07 03:15:09;;;;;;;6.80;3.40;;;10.00;99.90;;;;;;6232334;23;20422;-66
2022/10/07 03:17:35;;;;;;;3.67;3.00;;;10.00;99.90;;;;;;6230407;23;20066;-66
2022/10/07 03:20:00;;;;;;;4.63;4.22;;;10.00;99.90;;;;;;6231526;22;20242;-66
2022/10/07 03:22:28;;;;;;;4.82;3.88;;;10.10;99.90;;;;;;6231578;23;20004;-67
2022/10/07 03:24:54;;;;;;;5.93;4.68;;;10.10;99.90;;;;;;6233069;23;20024;-66
2022/10/07 03:27:19;;;;;;;7.85;4.72;;;10.10;99.90;;;;;;6232715;23;20038;-66
2022/10/07 03:29:47;;;;;;;4.07;3.65;;;10.20;99.90;;;;;;6230408;23;20625;-66
2022/10/07 03:32:13;;;;;;;3.78;3.47;;;10.10;99.90;;;;;;6232028;23;20345;-66
2022/10/07 03:34:39;;;;;;;3.50;3.20;;;9.90;99.90;;;;;;6231978;23;20000;-66
2022/10/07 03:37:05;;;;;;;3.88;3.55;;;9.80;99.90;;;;;;6233417;23;20020;-65
2022/10/07 03:39:31;;;;;;;5.75;4.00;;;9.80;99.90;;;;;;6231981;23;20716;-66
2022/10/07 03:41:56;;;;;;;3.72;3.40;;;9.80;99.90;;;;;;6233181;23;19999;-66
2022/10/07 03:44:22;;;;;;;8.30;3.80;;;9.80;99.90;;;;;;6229904;23;20001;-66
2022/10/07 03:46:49;;;;;;;4.30;3.55;;;9.70;99.90;;;;;;6231219;23;20028;-66
2022/10/07 03:49:15;;;;;;;4.53;4.13;;;9.80;99.90;;;;;;6231252;23;20030;-66
2022/10/07 03:51:40;;;;;;;4.65;4.00;;;9.80;99.90;;;;;;6234241;23;20804;-66
2022/10/07 03:54:06;;;;;;;9.20;5.45;;;9.80;99.90;;;;;;6234790;23;20460;-66
2022/10/07 03:56:33;;;;;;;6.13;5.18;;;9.80;99.90;;;;;;6231606;23;20062;-66
2022/10/07 03:58:58;;;;;;;10.77;6.15;;;9.80;99.90;;;;;;6234070;22;20004;-66
2022/10/07 04:01:24;;;;;;;6.53;5.18;;;9.90;99.90;;;;;;6231063;23;19996;-66
2022/10/07 04:03:50;;;;;;;4.30;3.83;;;9.90;99.90;;;;;;6234598;23;20082;-66
2022/10/07 04:06:15;;;;;;;4.93;3.58;;;9.90;99.90;;;;;;6230987;23;20016;-66
2022/10/07 04:08:43;;;;;;;4.85;4.20;;;9.90;99.90;;;;;;6232178;23;20000;-67
2022/10/07 04:11:10;;;;;;;5.60;3.88;;;9.90;99.90;;;;;;6233473;22;20008;-66
2022/10/07 04:13:36;;;;;;;5.25;4.40;;;9.80;99.90;;;;;;6233167;23;20083;-67
2022/10/07 04:16:09;;;;;;;6.80;3.83;;;9.70;99.90;;;;;;6231398;23;20340;-67
2022/10/07 04:18:35;;;;;;;7.22;4.40;;;9.70;99.90;;;;;;6232697;23;20058;-67
2022/10/07 04:21:01;;;;;;;4.75;3.95;;;9.60;99.90;;;;;;6232599;23;20422;-66
2022/10/07 04:23:27;;;;;;;4.68;4.03;;;9.60;99.90;;;;;;6234036;23;20079;-67
2022/10/07 04:25:52;;;;;;;4.63;3.90;;;9.60;99.90;;;;;;6233472;23;20513;-67
2022/10/07 04:28:24;;;;;;;5.45;3.83;;;9.50;99.90;;;;;;6234076;23;20008;-67
2022/10/07 04:30:50;;;;;;;;;;;9.60;99.90;;;;;;6232479;23;20008;-67
2022/10/07 04:33:20;;;;;;;4.72;4.32;;;9.60;99.90;;;;;;6233163;23;19910;-67
2022/10/07 04:35:47;;;;;;;4.40;3.40;;;9.60;99.90;;;;;;6232689;23;20035;-67
2022/10/07 04:38:17;;;;;;;4.95;4.07;;;9.60;99.90;;;;;;6233696;22;20012;-68
2022/10/07 04:40:46;;;;;;;6.05;4.20;;;9.60;99.90;;;;;;6231867;23;20039;-67
2022/10/07 04:43:25;;;;;;;4.65;3.92;;;9.70;99.90;;;;;;6235977;22;20006;-67
2022/10/07 04:45:53;;;;;;;4.90;4.25;;;9.70;99.90;;;;;;6230028;23;20016;-67
2022/10/07 04:48:21;;;;;;;6.60;3.97;;;9.60;99.90;;;;;;6232254;23;20010;-67
2022/10/07 04:50:47;;;;;;;4.78;3.80;;;9.60;99.90;;;;;;6232195;23;20004;-66
2022/10/07 04:53:15;;;;;;;5.43;4.35;;;9.60;99.90;;;;;;6235323;23;20010;-66
2022/10/07 04:55:42;;;;;;;10.00;5.22;;;9.60;99.90;;;;;;6233122;23;20004;-67
2022/10/07 04:58:08;;;;;;;13.18;5.10;;;9.70;99.90;;;;;;6229603;23;20736;-67
2022/10/07 05:00:34;;;;;;;5.53;3.30;;;9.70;99.90;;;;;;6230964;23;20103;-75
2022/10/07 05:03:00;;;;;;;6.88;3.63;;;9.70;99.90;;;;;;6230784;23;20602;-67
2022/10/07 05:05:27;;;;;;;4.78;3.05;;;9.60;99.90;;;;;;6232132;23;20482;-67
2022/10/07 05:07:53;;;;;;;3.67;3.30;;;9.50;99.90;;;;;;6231669;23;20004;-66
2022/10/07 05:10:20;;;;;;;3.78;2.67;;;9.50;99.90;;;;;;6230462;22;20330;-66
2022/10/07 05:12:45;;;;;;;4.20;3.20;;;9.50;99.90;;;;;;6229574;22;20445;-66
2022/10/07 05:15:11;;;;;;;5.88;3.10;;;9.40;99.90;;;;;;6226383;23;20004;-66
2022/10/07 05:17:39;;;;;;;4.97;3.50;;;9.40;99.90;;;;;;6226048;23;20217;-66
2022/10/07 05:20:09;;;;;;;5.30;3.25;;;9.40;99.90;;;;;;6229269;23;20003;-66
2022/10/07 05:22:35;;;;;;;4.75;3.70;;;9.50;99.90;;;;;;6231962;23;20008;-66
2022/10/07 05:25:00;;;;;;;3.97;3.25;;;9.50;99.90;;;;;;6229302;23;20011;-66
2022/10/07 05:27:26;;;;;;;6.03;3.97;;;9.50;99.90;;;;;;6230231;23;20012;-66
2022/10/07 05:29:52;;;;;;;12.63;3.90;;;9.60;99.90;;;;;;6230567;23;20027;-66
2022/10/07 05:32:17;;;;;;;5.10;3.95;;;9.60;99.90;;;;;;6230888;23;20035;-66
2022/10/07 05:34:43;;;;;;;5.88;4.45;;;9.70;99.90;;;;;;6230258;23;20004;-67
2022/10/07 05:37:10;;;;;;;4.32;3.92;;;9.80;99.90;;;;;;6231699;22;20027;-71
2022/10/07 05:39:35;;;;;;;9.27;3.83;;;9.80;99.90;;;;;;6231518;23;20008;-66
2022/10/07 05:42:01;;;;;;;5.07;4.57;;;9.90;99.90;;;;;;6235667;23;20000;-67
2022/10/07 05:44:27;;;;;;;4.90;4.10;;;9.80;99.90;;;;;;6233681;23;20004;-67
2022/10/07 05:46:53;;;;;;;4.68;4.10;;;9.70;99.90;;;;;;6232742;23;20012;-67
2022/10/07 05:49:19;;;;;;;4.40;4.00;;;9.60;99.90;;;;;;6232703;23;20000;-67
2022/10/07 05:51:44;;;;;;;5.88;4.15;;;9.50;99.90;;;;;;6233732;23;20008;-67
2022/10/07 05:54:10;;;;;;;8.27;4.35;;;9.60;99.90;;;;;;6233929;23;20392;-67
2022/10/07 05:56:36;;;;;;;5.75;4.85;;;9.60;99.90;;;;;;6233437;23;20004;-67
2022/10/07 05:59:03;;;;;;;7.45;5.45;;;9.60;99.90;;;;;;6236475;23;20007;-66
2022/10/07 06:01:28;;;;;;;10.13;5.57;;;9.70;99.90;;;;;;6232200;23;20372;-71
2022/10/07 06:03:58;;;;;;;18.63;6.00;;;9.90;99.90;;;;;;6232765;23;20007;-71
2022/10/07 06:06:25;;;;;;;9.23;5.95;;;10.00;99.90;;;;;;6233688;23;20019;-71
2022/10/07 06:08:51;;;;;;;9.82;7.00;;;10.20;99.90;;;;;;6227227;23;20000;-71
2022/10/07 06:14:03;;;;;;;6.70;6.10;;;10.30;99.90;;;;;;6232220;23;20507;-70
2022/10/07 06:16:29;;;;;;;6.07;5.22;;;10.30;99.90;;;;;;6232446;23;20079;-70
2022/10/07 06:18:55;;;;;;;5.78;5.22;;;10.40;99.90;;;;;;6231331;23;20373;-67
2022/10/07 06:21:26;;;;;;;7.05;4.97;;;10.50;99.90;;;;;;6230790;23;20010;-66
2022/10/07 06:23:54;;;;;;;16.58;12.15;;;10.70;99.90;;;;;;6233275;23;20008;-67
2022/10/07 06:26:21;;;;;;;12.98;11.20;;;10.80;99.90;;;;;;6230307;23;20087;-67
2022/10/07 06:28:47;;;;;;;21.35;15.55;;;11.00;99.90;;;;;;6234069;22;20095;-67
2022/10/07 06:31:23;;;;;;;19.60;15.02;;;11.10;99.90;;;;;;6233191;22;20031;-67
2022/10/07 06:33:49;;;;;;;23.05;17.95;;;11.30;99.90;;;;;;6231961;22;20014;-67
2022/10/07 06:36:16;;;;;;;10.73;7.13;;;11.40;99.90;;;;;;6230058;22;20047;-67
2022/10/07 06:38:49;;;;;;;6.45;5.68;;;11.50;99.90;;;;;;6232766;23;20014;-67
2022/10/07 06:41:15;;;;;;;6.35;5.30;;;11.70;99.90;;;;;;6232321;23;20480;-67
2022/10/07 06:43:41;;;;;;;7.47;5.60;;;11.80;99.90;;;;;;6231964;22;20004;-65
2022/10/07 06:46:12;;;;;;;6.25;5.65;;;11.90;99.90;;;;;;6231744;23;20111;-65
2022/10/07 06:48:40;;;;;;;9.57;7.30;;;12.00;99.90;;;;;;6233740;23;20007;-65
2022/10/07 06:51:06;;;;;;;7.88;5.53;;;12.20;99.90;;;;;;6231151;23;20091;-66
2022/10/07 06:53:32;;;;;;;8.00;6.40;;;12.50;99.90;;;;;;6233895;23;20023;-66
2022/10/07 06:56:02;;;;;;;8.80;6.63;;;12.80;99.90;;;;;;6232599;22;20012;-65
2022/10/07 06:58:27;;;;;;;7.13;6.43;;;13.10;99.90;;;;;;6232991;23;20039;-65
2022/10/07 07:00:54;;;;;;;7.97;6.30;;;13.40;99.90;;;;;;6231298;23;20008;-66
2022/10/07 07:03:20;;;;;;;6.55;5.78;;;13.60;99.90;;;;;;6229818;23;20142;-66
2022/10/07 07:05:46;;;;;;;7.30;5.40;;;13.90;99.90;;;;;;6228215;23;20083;-66
2022/10/07 07:08:14;;;;;;;8.20;6.10;;;14.20;99.90;;;;;;6232018;22;20008;-66
2022/10/07 07:10:44;;;;;;;7.32;5.47;;;14.50;99.90;;;;;;6231409;22;20007;-66
2022/10/07 07:13:10;;;;;;;8.73;6.53;;;14.70;99.90;;;;;;6229192;23;20493;-66
2022/10/07 07:15:36;;;;;;;8.27;5.53;;;14.90;99.90;;;;;;6230330;23;20000;-67
2022/10/07 07:18:04;;;;;;;6.18;5.22;;;15.10;99.90;;;;;;6229138;23;20023;-66
2022/10/07 07:20:36;;;;;;;7.65;6.43;;;15.40;99.90;;;;;;6225148;23;20050;-66
2022/10/07 07:23:07;;;;;;;7.57;6.32;;;15.70;99.90;;;;;;6228659;23;20004;-66
2022/10/07 07:25:37;;;;;;;6.25;5.63;;;15.90;99.90;;;;;;6228086;23;20512;-66
2022/10/07 07:28:04;;;;;;;6.32;5.18;;;16.00;99.90;;;;;;6232084;23;20012;-66
2022/10/07 07:30:30;;;;;;;6.13;5.20;;;16.20;99.90;;;;;;6227497;23;20054;-66
2022/10/07 07:32:56;;;;;;;6.28;5.68;;;16.30;99.90;;;;;;6232280;23;20008;-66
2022/10/07 07:35:22;;;;;;;7.15;4.88;;;16.50;99.90;;;;;;6230812;23;20492;-65
2022/10/07 07:37:49;;;;;;;7.85;5.03;;;16.70;99.90;;;;;;6230605;22;20252;-65
2022/10/07 07:40:15;;;;;;;7.13;5.28;;;16.80;99.90;;;;;;6229815;23;20477;-65
2022/10/07 07:42:41;;;;;;;5.88;5.22;;;16.90;99.90;;;;;;6226112;23;20098;-65
2022/10/07 07:45:07;;;;;;;5.72;5.13;;;17.00;99.90;;;;;;6227932;23;20606;-65
2022/10/07 07:47:34;;;;;;;5.20;4.70;;;17.00;99.90;;;;;;6229532;23;20008;-65
2022/10/07 07:50:00;;;;;;;6.28;4.57;;;17.10;99.90;;;;;;6229701;23;20503;-65
2022/10/07 07:52:26;;;;;;;5.93;5.32;;;17.20;99.90;;;;;;6223996;23;19997;-64
2022/10/07 07:54:56;;;;;;;6.00;5.40;;;17.30;99.90;;;;;;6227263;23;20008;-68
2022/10/07 07:57:23;;;;;;;7.03;5.50;;;17.40;99.90;;;;;;6226640;23;20008;-68
2022/10/07 07:59:49;;;;;;;7.55;5.00;;;17.50;99.90;;;;;;6226641;23;20008;-68
2022/10/07 08:02:15;;;;;;;8.48;6.30;;;17.50;99.90;;;;;;6229922;23;20004;-68
2022/10/07 08:04:41;;;;;;;5.65;4.75;;;17.70;99.90;;;;;;6231841;23;20437;-68
2022/10/07 08:07:06;;;;;;;4.43;4.03;;;17.80;99.90;;;;;;6232065;23;20123;-68
2022/10/07 08:09:32;;;;;;;5.78;4.57;;;17.80;99.90;;;;;;6228220;23;20107;-71
2022/10/07 08:11:58;;;;;;;5.88;4.55;;;17.90;99.90;;;;;;6229992;22;20102;-68
2022/10/07 08:14:23;;;;;;;5.40;4.57;;;18.00;99.90;;;;;;6228719;23;20075;-67
2022/10/07 08:16:50;;;;;;;16.35;5.05;;;18.10;99.90;;;;;;6230264;23;20000;-67
2022/10/07 08:19:16;;;;;;;6.43;4.22;;;18.20;99.90;;;;;;6231477;23;20000;-69
2022/10/07 08:21:42;;;;;;;5.38;4.28;;;18.20;99.90;;;;;;6230383;23;20011;-69
2022/10/07 08:24:11;;;;;;;6.25;4.30;;;18.30;99.90;;;;;;6230930;23;20044;-68
2022/10/07 08:26:37;;;;;;;5.90;4.03;;;18.30;99.90;;;;;;6230310;23;20085;-69
2022/10/07 08:29:03;;;;;;;5.50;4.15;;;18.50;99.90;;;;;;6230627;22;20003;-70
2022/10/07 08:31:30;;;;;;;4.93;4.18;;;18.50;99.90;;;;;;6228349;23;20008;-69
2022/10/07 08:33:58;;;;;;;4.18;3.78;;;18.60;99.90;;;;;;6232194;23;20027;-69
2022/10/07 08:36:25;;;;;;;3.97;3.67;;;18.80;99.90;;;;;;6228165;23;20084;-69
2022/10/07 08:38:52;;;;;;;5.22;4.10;;;18.80;99.90;;;;;;6230963;23;20110;-69
2022/10/07 08:41:32;;;;;;;8.30;6.47;;;18.80;99.90;;;;;;6233491;23;20008;-69
2022/10/07 08:44:16;;;;;;;6.93;4.22;;;18.70;99.90;;;;;;6232129;23;20434;-69
2022/10/07 08:46:59;;;;;;;4.60;4.13;;;18.90;99.90;;;;;;6227890;23;20012;-69
2022/10/07 08:49:38;;;;;;;4.53;4.07;;;19.10;99.90;;;;;;6232762;23;20066;-68
2022/10/07 08:52:16;;;;;;;35.13;6.20;;;19.30;99.90;;;;;;6232728;23;20074;-66
2022/10/07 08:54:42;;;;;;;5.10;4.10;;;19.20;99.90;;;;;;6232384;23;20030;-66
2022/10/07 08:57:19;;;;;;;7.82;4.05;;;19.30;99.90;;;;;;6231150;23;20040;-66
2022/10/07 08:59:52;;;;;;;4.82;3.72;;;19.40;99.90;;;;;;6232023;23;20012;-67
2022/10/07 09:02:45;;;;;;;4.40;4.00;;;19.50;99.90;;;;;;6231504;23;20111;-66
2022/10/07 09:05:16;;;;;;;6.90;4.20;;;19.40;99.90;;;;;;6233451;22;20063;-66
2022/10/07 09:07:46;;;;;;;4.32;3.92;;;19.60;99.90;;;;;;6230666;23;20005;-66
2022/10/07 09:10:35;;;;;;;9.77;5.65;;;19.80;99.90;;;;;;6234094;22;20005;-66
2022/10/07 09:13:20;;;;;;;7.30;4.38;;;19.90;99.90;;;;;;6232401;23;20010;-67
2022/10/07 09:15:49;;;;;;;4.90;3.85;;;19.80;99.90;;;;;;6230361;22;20011;-67
2022/10/07 09:18:32;;;;;;;5.53;4.32;;;19.80;99.90;;;;;;6231168;23;20763;-69
2022/10/07 09:20:59;;;;;;;7.30;4.10;;;19.90;99.90;;;;;;6226727;23;20054;-67
2022/10/07 09:23:30;;;;;;;9.70;6.28;;;20.00;99.90;;;;;;6228553;23;20008;-67
2022/10/07 09:25:55;;;;;;;10.48;4.05;;;20.10;99.90;;;;;;6230226;23;20572;-67
2022/10/07 09:28:27;;;;;;;5.13;3.67;;;20.10;99.90;;;;;;6232177;23;20115;-68
2022/10/07 09:30:52;;;;;;;4.28;3.33;;;20.30;99.90;;;;;;6233061;23;20003;-72
2022/10/07 09:33:21;;;;;;;5.47;3.53;;;20.40;99.90;;;;;;6230250;23;20012;-68
2022/10/07 09:35:55;;;;;;;3.53;3.10;;;20.50;99.90;;;;;;6228022;23;20004;-67
2022/10/07 09:38:36;;;;;;;9.43;5.65;;;20.50;99.90;;;;;;6230865;23;20091;-67
2022/10/07 09:41:19;;;;;;;6.72;3.92;;;20.60;99.90;;;;;;6231369;23;20004;-68
2022/10/07 09:44:24;;;;;;;8.00;4.05;;;20.90;99.90;;;;;;6227329;23;20008;-68
2022/10/07 09:46:56;;;;;;;10.95;4.60;;;21.10;99.90;;;;;;6232428;23;20024;-68
2022/10/07 09:49:27;;;;;;;5.95;3.38;;;21.30;99.90;;;;;;6233025;23;20004;-69
2022/10/07 09:52:16;;;;;;;5.30;3.30;;;21.30;99.90;;;;;;6231023;23;20035;-68
2022/10/07 09:54:44;;;;;;;14.02;4.68;;;21.30;99.90;;;;;;6231497;23;20035;-69
2022/10/07 09:57:24;;;;;;;11.18;3.85;;;21.30;99.90;;;;;;6232250;23;20004;-68
2022/10/07 09:59:50;;;;;;;4.85;3.33;;;21.40;99.90;;;;;;6227745;23;20004;-68
2022/10/07 10:02:22;;;;;;;3.08;2.88;;;21.40;99.90;;;;;;6229494;23;20014;-68
2022/10/07 10:04:57;;;;;;;5.38;3.40;;;21.50;99.90;;;;;;6228539;23;20406;-69
2022/10/07 10:07:27;;;;;;;3.72;2.92;;;21.50;99.90;;;;;;6231404;23;20082;-68
2022/10/07 10:10:02;;;;;;;3.35;2.70;;;21.60;99.90;;;;;;6231080;22;20718;-70
2022/10/07 10:12:31;;;;;;;4.78;3.08;;;21.40;99.90;;;;;;6227360;23;20177;-71
2022/10/07 10:15:00;;;;;;;2.92;2.70;;;21.30;99.90;;;;;;6232744;23;20452;-70
2022/10/07 10:17:30;;;;;;;3.25;2.83;;;21.40;99.90;;;;;;6233083;23;20003;-71
2022/10/07 10:20:18;;;;;;;4.00;3.38;;;21.50;99.90;;;;;;6228548;23;20107;-70
2022/10/07 10:22:44;;;;;;;5.60;2.65;;;21.60;99.90;;;;;;6227203;23;20004;-70
2022/10/07 10:28:12;;;;;;;12.13;3.38;;;21.60;99.90;;;;;;6230735;23;20030;-70
2022/10/07 10:30:47;;;;;;;3.40;2.67;;;21.90;99.90;;;;;;6228409;23;20103;-70
2022/10/07 10:33:25;;;;;;;3.10;2.80;;;22.10;99.90;;;;;;6232089;23;20690;-70
2022/10/07 10:36:25;;;;;;;7.03;2.53;;;22.20;99.90;;;;;;6231116;23;20000;-70
2022/10/07 10:39:12;;;;;;;5.65;2.80;;;22.50;99.90;;;;;;6178668;22;20015;-72
2022/10/07 10:41:42;;;;;;;3.65;2.53;;;22.70;99.90;;;;;;6229475;23;20083;-70
2022/10/07 10:44:27;;;;;;;3.65;2.88;;;22.70;99.90;;;;;;6232134;23;20475;-70
2022/10/07 10:46:58;;;;;;;4.40;2.70;;;22.60;99.90;;;;;;6232059;23;20016;-69
2022/10/07 10:49:44;;;;;;;5.30;3.00;;;22.50;99.90;;;;;;6231180;23;20413;-70
2022/10/07 10:52:31;;;;;;;4.75;2.40;;;22.30;99.90;;;;;;6231659;23;20035;-70
2022/10/07 10:55:38;;;;;;;3.08;2.78;;;22.10;99.90;;;;;;6226944;23;20055;-69
2022/10/07 10:58:14;;;;;;;2.40;2.20;;;22.00;99.90;;;;;;6230540;23;20004;-70
2022/10/07 11:00:57;;;;;;;3.03;2.05;;;22.00;99.90;;;;;;6227277;23;20509;-69
2022/10/07 11:03:28;;;;;;;2.70;2.45;;;22.10;99.90;;;;;;6230582;23;20000;-69
2022/10/07 11:05:55;;;;;;;14.65;2.42;;;22.30;99.90;;;;;;6231836;23;20004;-69
2022/10/07 11:08:31;;;;;;;8.35;2.47;;;22.50;99.90;;;;;;6231461;23;20098;-69
2022/10/07 11:11:02;;;;;;;2.80;2.42;;;22.60;99.90;;;;;;6228324;22;20000;-68
2022/10/07 11:13:49;;;;;;;3.10;2.10;;;22.50;99.90;;;;;;6231099;23;20031;-68
2022/10/07 11:16:21;;;;;;;3.53;1.80;;;22.60;99.90;;;;;;6225175;23;20004;-68
2022/10/07 11:19:28;;;;;;;5.30;2.35;;;22.60;99.90;;;;;;6230024;22;20051;-68
2022/10/07 11:21:58;;;;;;;5.40;2.30;;;22.70;99.90;;;;;;6232226;23;20043;-68
2022/10/07 11:24:33;;;;;;;2.50;2.30;;;22.80;99.90;;;;;;6230455;23;20472;-71
2022/10/07 11:27:17;;;;;;;6.50;2.28;;;22.70;99.90;;;;;;6229753;23;20095;-72
2022/10/07 11:30:01;;;;;;;7.53;2.08;;;22.60;99.90;;;;;;6231679;23;19996;-72
2022/10/07 11:32:33;;;;;;;5.63;2.33;;;22.70;99.90;;;;;;6228993;23;20032;-72
2022/10/07 11:35:24;;;;;;;2.45;2.00;;;22.90;99.90;;;;;;6232977;23;20042;-72
2022/10/07 11:38:04;;;;;;;2.88;2.15;;;23.00;99.90;;;;;;6231263;22;20035;-72
2022/10/07 11:40:33;;;;;;;3.35;1.80;;;23.00;99.90;;;;;;6228977;23;20019;-71
2022/10/07 11:43:11;;;;;;;2.65;2.20;;;23.10;99.90;;;;;;6233181;23;20004;-72
2022/10/07 11:45:48;;;;;;;8.02;2.78;;;23.20;99.90;;;;;;6229077;23;20018;-74
2022/10/07 11:48:29;;;;;;;2.33;2.13;;;23.10;99.90;;;;;;6224065;23;20020;-74
2022/10/07 11:51:00;;;;;;;2.35;1.90;;;23.20;99.90;;;;;;6223895;23;20050;-74
2022/10/07 11:53:30;;;;;;;3.95;2.25;;;23.20;99.90;;;;;;6222595;23;20000;-75
2022/10/07 11:55:59;;;;;;;3.00;2.03;;;23.10;99.90;;;;;;6226679;23;20012;-75
2022/10/07 11:58:37;;;;;;;3.20;1.90;;;23.00;99.90;;;;;;6220137;23;20008;-74
2022/10/07 12:01:25;;;;;;;2.00;1.80;;;23.10;99.90;;;;;;6230643;23;20088;-75
2022/10/07 12:04:19;;;;;;;6.18;1.90;;;23.20;99.90;;;;;;6229916;23;20023;-75
2022/10/07 12:07:22;;;;;;;2.97;1.80;;;23.20;99.90;;;;;;6213705;23;20024;-74
2022/10/07 12:09:58;;;;;;;2.55;2.15;;;23.30;99.90;;;;;;6227622;22;20913;-74
2022/10/07 12:12:24;;;;;;;3.92;1.85;;;23.30;99.90;;;;;;6224310;22;20855;-74
2022/10/07 12:15:01;;;;;;;2.55;1.90;;;23.20;99.90;;;;;;6226276;23;20034;-74
2022/10/07 12:17:28;;;;;;;3.13;2.38;;;23.20;99.90;;;;;;6227792;23;20000;-74
2022/10/07 12:20:31;;;;;;;2.90;2.00;;;23.30;99.90;;;;;;6229900;23;20457;-74
2022/10/07 12:23:16;;;;;;;2.58;1.85;;;23.40;99.90;;;;;;6235400;22;20004;-71
2022/10/07 12:25:45;;;;;;;3.25;1.98;;;23.60;99.90;;;;;;6230852;22;20012;-71
2022/10/07 12:28:25;;;;;;;2.00;1.73;;;23.70;99.90;;;;;;6232850;23;20012;-73
2022/10/07 12:30:55;;;;;;;2.17;1.80;;;23.70;99.90;;;;;;6226991;23;20008;-72
2022/10/07 12:33:33;;;;;;;3.75;2.00;;;23.70;99.90;;;;;;6229178;23;20004;-72
2022/10/07 12:36:17;;;;;;;3.50;1.58;;;23.80;99.90;;;;;;6227923;23;20022;-72
2022/10/07 12:38:45;;;;;;;4.88;3.15;;;23.90;99.90;;;;;;6230492;23;20015;-72
2022/10/07 12:41:27;;;;;;;2.40;1.88;;;23.90;99.90;;;;;;6229748;23;20004;-72
2022/10/07 12:44:30;;;;;;;3.15;2.17;;;24.00;99.90;;;;;;6223262;23;20008;-72
2022/10/07 12:47:01;;;;;;;2.38;1.70;;;24.00;99.90;;;;;;6225563;22;20012;-72
2022/10/07 12:49:53;;;;;;;2.57;2.00;;;24.00;99.90;;;;;;6231404;23;20028;-72
2022/10/07 12:52:28;;;;;;;3.25;2.10;;;23.90;99.90;;;;;;6228045;23;20015;-72
2022/10/07 12:55:13;;;;;;;6.20;2.00;;;23.90;99.90;;;;;;6226424;23;20001;-73
2022/10/07 12:57:41;;;;;;;2.10;1.80;;;23.90;99.90;;;;;;6222601;23;20004;-73
2022/10/07 13:00:15;;;;;;;2.65;1.70;;;23.90;99.90;;;;;;6232406;23;20058;-75
2022/10/07 13:03:27;;;;;;;4.10;2.05;;;23.80;99.90;;;;;;6233660;23;20071;-73
2022/10/07 13:06:41;;;;;;;4.40;1.80;;;23.80;99.90;;;;;;6235713;23;20164;-74
2022/10/07 13:09:24;;;;;;;2.38;2.05;;;24.00;99.90;;;;;;6226892;23;20274;-75
2022/10/07 13:12:01;;;;;;;2.65;1.90;;;24.00;99.90;;;;;;6232823;22;20032;-74
2022/10/07 13:14:27;;;;;;;2.42;1.95;;;24.00;99.90;;;;;;6220269;23;20027;-74
2022/10/07 13:17:20;;;;;;;2.10;1.90;;;23.90;99.90;;;;;;6225912;23;20030;-73
2022/10/07 13:20:16;;;;;;;2.15;1.95;;;24.00;99.90;;;;;;6225187;23;20005;-74